x

West Dixon Entrance (46205) Wave Buoy

2:00pm - Wed 4th Mar 2015 All times are PST. -8 hours from GMT.

  • Sig Wave height 4.3ft
  • Peak Period 14s
  • Wind
    16mph, 18mph gusts
  • Sea Temp 46°f
  • Air Temp 46°f
  • Sea Pressure 1019mb
  • West Dixon Entrance
  • West Dixon Entrance

More Historic Weather Station data

Upgrade to MSW Pro to gain access to the past 30 days of data for over 8000 Wavebouys and Weather Stations around the globe.

Join Pro

Comparision Forecast

View Surf forecast
   
Wed 03/04 2:00pm 4.5ft 14s 16 18 mph 1019mb 46f 46f
12:00pm 3.5ft 14s 13 18 mph 1019.6mb 47f 45f
11:00am 3.5ft 17s 13 16 mph 1019.9mb 46f 46f
10:00am 3.5ft 15s 13 18 mph 1020.2mb 47f 45f
9:00am 3.5ft 15s 13 18 mph 1020.4mb 46f 44f
8:00am 3.5ft 15s 13 18 mph 1020.6mb 46f 44f
7:00am 3.5ft 15s 11 13 mph 1020.8mb 46f 45f
6:00am 3.5ft 15s 9 11 mph 1021.7mb 46f 44f
5:00am 3.5ft 8s 9 13 mph 1021.8mb 47f 44f
4:00am 3.5ft 9s 11 13 mph 1022.1mb 47f 44f
3:00am 3.5ft 9s 7 9 mph 1022.3mb 47f 43f
2:00am 3.5ft 8s 4
mph
1022.7mb 46f 43f
1:00am 3.5ft 8s 2 4 mph 1023.2mb 46f 42f
12:00am 3.5ft 8s 7 11 mph 1023.4mb 46f 43f
Tue 03/03 11:00pm 3.5ft 8s 9
mph
1023.8mb 46f 44f
10:00pm 3ft 8s 9 11 mph 1023.9mb 46f 43f
9:00pm 3ft 9s 9 13 mph 1023.9mb 46f 44f
8:00pm 3ft 8s 7 9 mph 1023.9mb 47f 43f
7:00pm 2.5ft 8s 4
mph
1024.1mb 47f 44f
6:00pm 3ft 9s 7 9 mph 1024.3mb 47f 44f
5:00pm 3ft 8s 9 11 mph 1024.7mb 47f 44f
4:00pm 3ft 12s 11 13 mph 1025.1mb 48f 45f
3:00pm 2.5ft 8s 9 11 mph 1025mb 47f 45f
2:00pm 2.5ft 8s 9 11 mph 1025mb 48f 46f
1:00pm 2.5ft 12s 9
mph
1025.1mb 48f 46f
12:00pm 2.5ft 9s 7 9 mph 1025mb 48f 46f
11:00am 2.5ft 9s 7 9 mph 1025.1mb 48f 46f
10:00am 2ft 10s 7 9 mph 1025.1mb 47f 46f
9:00am 2ft 12s 4 7 mph 1025mb 47f 44f
8:00am 2ft 12s 7 9 mph 1025mb 47f 45f
7:00am 2.5ft 12s 4
mph
1025.1mb 47f 46f
6:00am 2.5ft 10s  -  mph 1025.2mb 47f 46f
5:00am 2.5ft 12s 2 4 mph 1025mb 47f 46f
4:00am 2.5ft 12s 4 7 mph 1025.1mb 47f 46f
3:00am 2.5ft 12s 4 7 mph 1025.1mb 47f 46f
2:00am 2.5ft 11s 7 9 mph 1025.4mb 47f 46f
1:00am 2.5ft 10s 7
mph
1025.1mb 47f 46f
12:00am 2.5ft 12s 4
mph
1024.9mb 47f 46f
Mon 03/02 11:00pm 2.5ft 12s 4
mph
1024.7mb 46f 46f
10:00pm 2.5ft 12s 7 9 mph 1024.6mb 46f 46f
9:00pm 2.5ft 11s 7
mph
1025.3mb 46f 46f
8:00pm 2.5ft 14s 2
mph
1025.2mb 46f 45f
7:00pm 3ft 14s  -  2 mph 1025.4mb 46f 45f
6:00pm 3ft 12s 2
mph
1025.3mb 46f 45f
5:00pm 3.5ft 12s 4
mph
1025.4mb 46f 45f
4:00pm 3.5ft 12s 4
mph
1026.1mb 46f 46f
3:00pm 3.5ft 11s 7
mph
1025.9mb 46f 46f
2:00pm 3.5ft 11s 7 9 mph 1026.4mb 46f 46f
1:00pm 4ft 12s 7 9 mph 1026.7mb 46f 46f
12:00pm 4ft 12s 7
mph
1026.7mb 45f 46f
11:00am 3.5ft 12s 7 9 mph 1026.6mb 45f 46f
10:00am 4ft 12s 7 9 mph 1026.6mb 45f 46f
9:00am 3.5ft 12s 7 9 mph 1026.5mb 45f 46f
8:00am 3.5ft 12s 9 11 mph 1026.7mb 45f 46f
7:00am 3.5ft 12s 11 13 mph 1026.8mb 45f 45f
6:00am 4ft 12s 13 16 mph 1026.9mb 45f 46f
5:00am 4.5ft 13s 11 16 mph 1027.2mb 45f 46f
4:00am 4.5ft 6s 13 16 mph 1027.7mb 45f 46f
3:00am 5ft 12s 13 16 mph 1027.9mb 45f 46f
2:00am 5ft 5s 16 18 mph 1027.9mb 45f 46f
1:00am 5.5ft 6s 16 20 mph 1027.9mb 45f 46f
12:00am 5ft 13s 18 20 mph 1027.8mb 46f 46f
Sun 03/01 11:00pm 5ft 7s 18 22 mph 1027.9mb 45f 46f
10:00pm 5ft 7s 18 20 mph 1028.2mb 45f 46f
9:00pm 5.5ft 7s 18 20 mph 1028.2mb 45f 46f
8:00pm 6ft 7s 20 22 mph 1028mb 45f 44f
7:00pm 6ft 7s 22 27 mph 1027.4mb 45f 45f
6:00pm 6ft 7s 20 27 mph 1027.2mb 45f 46f
5:00pm 5.5ft 7s 20 25 mph 1026.8mb 46f 46f
4:00pm 6ft 7s 18 22 mph 1026.9mb 46f 46f
3:00pm 5.5ft 6s 22 27 mph 1026.4mb 46f 46f
2:00pm 6ft 6s 20 25 mph 1026.4mb 45f 46f
1:00pm 6ft 6s 18 22 mph 1025.9mb 45f 45f
12:00pm 6.5ft 6s 20 25 mph 1025.7mb 45f 45f
11:00am 6ft 6s 22 27 mph 1025.3mb 46f 45f
10:00am 6ft 6s 25 31 mph 1024.6mb 46f 45f
9:00am 6ft 6s 25 31 mph 1024.2mb 46f 45f
8:00am 5ft 5s 22 27 mph 1024.1mb 46f 45f
7:00am 4.5ft 5s 22 29 mph 1024.1mb 46f 45f
6:00am 4.5ft 5s 20 25 mph 1024.9mb 46f 45f
5:00am 4.5ft 6s 22 25 mph 1025.7mb 46f 44f
4:00am 4.5ft 5s 20 25 mph 1026.4mb 46f 45f
3:00am  -   -  20
mph
1027mb 46f 44f
2:00am 4ft 6s 18 22 mph 1027.5mb 46f 45f
1:00am 4ft 5s 16 20 mph 1027.9mb 46f 44f
12:00am 4.5ft 6s 13 16 mph 1028.3mb 46f 44f